Time;durP1;ratioP1;P1;durP2;ratioP2;P2;SDS_P1;SDS_P2;PMS_P1;PMS_P2;Temp;Humidity;BMP_temperature;BMP_pressure;BME280_temperature;BME280_humidity;BME280_pressure;Samples;Min_cycle;Max_cycle;Signal;HPM_P1;HPM_P2
2023/10/21 00:01:07;;;;;;;6.57;2.93;;;;;;;21.18;64.35;98678.97;5086263;28;20199;-93
2023/10/21 00:03:34;;;;;;;5.13;2.97;;;;;;;21.20;64.42;98676.97;5075013;28;20180;-93
2023/10/21 00:05:59;;;;;;;10.90;3.13;;;;;;;21.14;64.77;98671.44;5073682;28;20169;-93
2023/10/21 00:08:25;;;;;;;7.93;2.80;;;;;;;21.14;64.79;98674.09;5073745;28;20184;-92
2023/10/21 00:11:13;;;;;;;6.73;3.07;;;;;;;21.19;64.52;98666.47;5073820;28;20184;-94
2023/10/21 00:13:40;;;;;;;5.97;2.90;;;;;;;21.12;64.32;98666.25;5083752;28;20637;-93
2023/10/21 00:16:06;;;;;;;8.50;3.20;;;;;;;21.06;64.72;98671.34;5094068;28;20192;-92
2023/10/21 00:18:32;;;;;;;6.73;2.70;;;;;;;20.94;65.22;98670.78;5093327;28;20267;-94
2023/10/21 00:20:59;;;;;;;6.00;3.27;;;;;;;20.93;65.01;98669.13;5093774;28;20330;-93
2023/10/21 00:23:24;;;;;;;4.60;2.20;;;;;;;20.95;64.90;98672.47;5094812;28;20188;-93
2023/10/21 00:25:51;;;;;;;5.07;2.63;;;;;;;20.93;64.96;98668.28;5093608;28;20181;-93
2023/10/21 00:28:16;;;;;;;6.10;3.13;;;;;;;20.87;65.16;98664.41;5093525;28;20184;-93
2023/10/21 00:30:45;;;;;;;4.40;2.40;;;;;;;20.85;64.88;98661.06;5110508;28;20168;-93
2023/10/21 00:33:12;;;;;;;6.33;2.73;;;;;;;20.90;64.90;98671.25;5079022;28;20182;-92
2023/10/21 00:35:39;;;;;;;5.53;2.77;;;;;;;20.86;64.04;98670.72;5053311;28;20299;-93
2023/10/21 00:38:06;;;;;;;4.30;2.30;;;;;;;20.79;63.81;98673.19;5053340;28;20174;-92
2023/10/21 00:40:32;;;;;;;5.33;2.53;;;;;;;20.80;63.68;98677.53;5053160;28;20254;-94
2023/10/21 00:42:58;;;;;;;7.97;2.97;;;;;;;20.66;63.29;98674.59;5054188;28;20256;-94
2023/10/21 00:45:25;;;;;;;5.83;2.70;;;;;;;20.56;63.55;98687.16;5053089;28;20178;-92
2023/10/21 00:47:52;;;;;;;5.53;2.77;;;;;;;20.42;64.01;98677.88;5053131;28;20181;-93
2023/10/21 00:50:19;;;;;;;5.03;2.67;;;;;;;20.36;64.29;98686.47;5060442;28;20192;-93
2023/10/21 00:52:46;;;;;;;6.47;2.73;;;;;;;20.26;64.17;98691.03;5072453;28;20178;-93
2023/10/21 00:55:13;;;;;;;7.83;2.70;;;;;;;20.18;64.49;98694.44;5094088;28;20202;-93
2023/10/21 00:57:40;;;;;;;6.83;2.40;;;;;;;20.15;64.53;98692.06;5093317;28;20176;-94
2023/10/21 01:00:16;;;;;;;3.90;2.47;;;;;;;20.15;64.47;98693.94;5075042;28;20185;-93
2023/10/21 01:02:43;;;;;;;5.57;2.77;;;;;;;20.12;63.92;98696.88;5073027;28;20172;-94
2023/10/21 01:05:10;;;;;;;6.53;2.77;;;;;;;20.04;63.53;98697.63;5073067;28;20165;-93
2023/10/21 01:07:42;;;;;;;5.57;2.93;;;;;;;20.07;63.21;98699.97;5073034;28;20185;-93
2023/10/21 01:10:11;;;;;;;4.50;2.47;;;;;;;19.99;63.02;98702.56;5072751;28;20185;-92
2023/10/21 01:12:39;;;;;;;7.30;3.00;;;;;;;19.87;62.82;98703.75;5072844;28;20169;-92
2023/10/21 01:15:07;;;;;;;5.47;2.93;;;;;;;19.79;63.10;98695.69;5072812;28;20177;-93
2023/10/21 01:17:34;;;;;;;10.37;2.77;;;;;;;19.81;63.01;98699.03;5072920;28;20184;-91
2023/10/21 01:20:01;;;;;;;3.80;2.17;;;;;;;19.72;62.86;98696.44;5069263;28;20181;-93
2023/10/21 01:22:28;;;;;;;9.13;2.67;;;;;;;19.57;63.21;98707.56;5069516;28;20182;-92
2023/10/21 01:24:54;;;;;;;3.50;1.93;;;;;;;19.43;64.06;98701.91;5069364;28;20181;-93
2023/10/21 01:27:20;;;;;;;6.27;2.93;;;;;;;19.28;64.38;98704.16;5069414;28;20188;-91
2023/10/21 01:29:47;;;;;;;5.83;2.40;;;;;;;19.24;64.90;98707.25;5062745;28;20185;-93
2023/10/21 01:32:14;;;;;;;5.77;2.67;;;;;;;19.27;64.64;98712.28;5055810;28;20264;-92
2023/10/21 01:34:40;;;;;;;4.83;2.23;;;;;;;19.26;64.11;98700.78;5057749;28;20177;-92
2023/10/21 01:37:06;;;;;;;6.23;3.30;;;;;;;19.25;64.28;98703.63;5073397;28;20666;-93
2023/10/21 01:39:32;;;;;;;7.93;3.07;;;;;;;19.21;63.92;98708.38;5073380;28;20177;-92
2023/10/21 01:41:58;;;;;;;6.70;2.37;;;;;;;19.17;63.66;98703.50;5087763;28;20187;-93
2023/10/21 01:44:25;;;;;;;6.37;2.60;;;;;;;19.14;63.57;98701.13;5077707;28;20184;-92
2023/10/21 01:46:51;;;;;;;6.37;3.27;;;;;;;19.09;63.16;98706.88;5076415;28;20177;-94
2023/10/21 01:49:18;;;;;;;5.33;2.30;;;;;;;19.03;62.85;98705.63;5076501;28;20259;-92
2023/10/21 01:51:45;;;;;;;3.87;2.50;;;;;;;18.95;62.93;98712.63;5077377;28;20187;-94
2023/10/21 01:54:10;;;;;;;7.43;2.87;;;;;;;18.89;62.54;98706.06;5076469;28;20179;-92
2023/10/21 01:56:38;;;;;;;7.50;2.70;;;;;;;18.86;62.08;98716.16;5076193;28;20200;-93
2023/10/21 01:59:03;;;;;;;5.70;2.80;;;;;;;18.76;61.49;98713.50;5085061;28;20194;-93
2023/10/21 02:01:30;;;;;;;4.87;2.50;;;;;;;18.68;61.32;98710.75;5087804;28;20189;-93
2023/10/21 02:03:56;;;;;;;10.33;3.20;;;;;;;18.59;61.10;98721.38;5079632;28;20191;-91
2023/10/21 02:06:22;;;;;;;8.40;2.80;;;;;;;18.47;60.71;98712.72;5096567;28;20639;-92
2023/10/21 02:08:48;;;;;;;7.10;3.40;;;;;;;18.35;60.65;98709.31;5096318;28;20184;-93
2023/10/21 02:11:13;;;;;;;6.37;2.90;;;;;;;18.17;62.08;98712.81;5091824;28;20702;-93
2023/10/21 02:13:39;;;;;;;8.67;3.27;;;;;;;18.12;62.66;98712.38;5076891;28;20170;-92
2023/10/21 02:16:09;;;;;;;10.03;3.00;;;;;;;18.15;64.19;98714.75;5096058;28;20201;-92
2023/10/21 02:18:36;;;;;;;6.97;2.53;;;;;;;18.24;64.72;98711.28;5097274;28;20595;-93
2023/10/21 02:21:06;;;;;;;7.00;2.90;;;;;;;18.23;65.63;98707.81;5096356;28;20176;-93
2023/10/21 02:23:32;;;;;;;5.20;2.60;;;;;;;18.29;66.01;98717.84;5095986;28;20176;-92
2023/10/21 02:26:06;;;;;;;5.80;2.90;;;;;;;18.31;66.15;98715.06;5096031;28;20185;-93
2023/10/21 02:28:32;;;;;;;9.37;3.00;;;;;;;18.35;66.50;98705.84;5112713;28;20208;-92
2023/10/21 02:31:03;;;;;;;5.87;2.70;;;;;;;18.48;66.88;98709.06;5095737;28;20629;-92
2023/10/21 02:33:28;;;;;;;5.57;2.97;;;;;;;18.55;67.21;98710.22;5095800;28;20165;-92
2023/10/21 02:35:55;;;;;;;7.43;2.67;;;;;;;18.58;67.56;98715.22;5096894;28;20200;-92
2023/10/21 02:38:24;;;;;;;5.27;2.80;;;;;;;18.53;68.46;98716.59;5095809;28;20238;-93
2023/10/21 02:40:49;;;;;;;6.97;3.00;;;;;;;18.70;68.04;98714.09;5095900;28;20199;-92
2023/10/21 02:43:16;;;;;;;6.80;2.67;;;;;;;18.75;68.34;98711.00;5096343;28;20169;-94
2023/10/21 02:45:43;;;;;;;5.73;2.90;;;;;;;18.76;68.34;98723.31;5095297;28;20321;-92
2023/10/21 02:48:10;;;;;;;4.77;2.70;;;;;;;18.78;68.81;98716.88;5095880;28;20529;-92
2023/10/21 02:50:37;;;;;;;7.80;3.33;;;;;;;18.86;69.47;98717.00;5095634;28;20660;-92
2023/10/21 02:53:03;;;;;;;6.00;2.80;;;;;;;18.92;69.76;98724.38;5095515;28;20183;-93
2023/10/21 02:55:30;;;;;;;10.07;2.83;;;;;;;18.98;69.51;98723.81;5095983;28;20236;-93
2023/10/21 02:57:56;;;;;;;6.30;2.77;;;;;;;19.04;69.76;98727.72;5095628;28;20648;-92
2023/10/21 03:00:23;;;;;;;5.20;3.03;;;;;;;19.21;69.24;98723.50;5095416;28;20178;-93
2023/10/21 03:02:50;;;;;;;6.50;3.17;;;;;;;19.19;69.43;98730.75;5095407;28;20175;-93
2023/10/21 03:05:20;;;;;;;8.00;3.47;;;;;;;19.18;69.90;98732.56;5095236;28;20167;-93
2023/10/21 03:07:47;;;;;;;5.73;2.57;;;;;;;19.29;70.28;98734.22;5096750;28;20155;-93
2023/10/21 03:10:13;;;;;;;7.33;2.80;;;;;;;19.36;69.70;98735.34;5083564;28;20644;-92
2023/10/21 03:12:40;;;;;;;9.87;3.90;;;;;;;19.20;70.72;98737.75;5074876;28;20237;-94
2023/10/21 03:15:07;;;;;;;5.77;2.80;;;;;;;19.25;70.28;98736.34;5074807;28;20238;-93
2023/10/21 03:17:33;;;;;;;7.43;3.60;;;;;;;19.29;70.26;98731.56;5076245;28;20177;-93
2023/10/21 03:19:59;;;;;;;5.90;3.00;;;;;;;19.39;70.29;98741.22;5075661;28;20250;-93
2023/10/21 03:22:26;;;;;;;7.50;3.13;;;;;;;19.44;70.02;98736.28;5074675;28;20184;-92
2023/10/21 03:24:52;;;;;;;11.60;3.63;;;;;;;19.52;69.77;98744.38;5074677;28;20173;-93
2023/10/21 03:27:20;;;;;;;5.87;2.60;;;;;;;19.55;69.55;98743.25;5090517;28;20176;-92
2023/10/21 03:29:45;;;;;;;7.80;3.00;;;;;;;19.61;69.42;98748.00;5094774;28;20236;-93
2023/10/21 03:32:12;;;;;;;4.67;2.63;;;;;;;19.60;69.43;98751.66;5094984;28;20177;-94
2023/10/21 03:34:39;;;;;;;9.77;2.97;;;;;;;19.58;69.17;98758.91;5094814;28;20168;-93
2023/10/21 03:37:06;;;;;;;6.83;3.03;;;;;;;19.49;69.21;98755.31;5094614;28;20660;-92
2023/10/21 03:39:33;;;;;;;8.43;2.83;;;;;;;19.38;69.89;98758.16;5094494;28;20689;-92
2023/10/21 03:41:59;;;;;;;6.57;3.20;;;;;;;19.28;70.28;98749.34;5094446;28;20216;-92
2023/10/21 03:44:26;;;;;;;6.70;2.33;;;;;;;19.17;70.19;98749.50;5081910;28;20173;-94
2023/10/21 03:46:52;;;;;;;7.30;3.13;;;;;;;19.22;70.06;98743.75;5074379;28;20173;-93
2023/10/21 03:49:18;;;;;;;7.87;3.20;;;;;;;19.21;69.92;98744.75;5074189;28;20319;-92
2023/10/21 03:51:45;;;;;;;6.30;3.03;;;;;;;19.10;69.92;98750.22;5073989;28;20185;-92
2023/10/21 03:54:12;;;;;;;5.50;2.93;;;;;;;19.03;69.87;98747.28;5082402;28;20187;-93
2023/10/21 03:56:39;;;;;;;5.37;2.73;;;;;;;18.95;69.95;98747.16;5094266;28;20283;-93
2023/10/21 03:59:04;;;;;;;5.97;3.00;;;;;;;18.87;69.65;98753.19;5083223;28;20630;-93
2023/10/21 04:01:31;;;;;;;5.90;3.00;;;;;;;18.85;69.46;98755.16;5092760;28;20190;-93
2023/10/21 04:03:57;;;;;;;5.07;2.60;;;;;;;18.79;69.53;98750.41;5094070;28;20566;-93
2023/10/21 04:06:24;;;;;;;10.07;2.70;;;;;;;18.75;69.57;98753.50;5094117;28;20707;-92
2023/10/21 04:08:50;;;;;;;7.37;2.37;;;;;;;18.64;69.55;98750.97;5094046;28;20176;-94
2023/10/21 04:11:17;;;;;;;6.93;3.07;;;;;;;18.55;70.00;98755.34;5093656;28;20194;-93
2023/10/21 04:13:43;;;;;;;7.47;3.13;;;;;;;18.57;69.77;98756.03;5094103;28;20180;-92
2023/10/21 04:16:10;;;;;;;10.40;2.93;;;;;;;18.53;69.92;98753.78;5074401;28;20215;-93
2023/10/21 04:18:36;;;;;;;5.17;2.80;;;;;;;18.51;69.89;98755.72;5073598;28;20177;-93
2023/10/21 04:21:02;;;;;;;7.37;2.73;;;;;;;18.55;69.48;98758.00;5080017;28;20208;-93
2023/10/21 04:23:27;;;;;;;6.20;2.63;;;;;;;18.52;69.43;98768.88;5093676;28;20617;-92
2023/10/21 04:25:53;;;;;;;7.80;2.73;;;;;;;18.50;69.72;98760.19;5093558;28;20190;-93
2023/10/21 04:28:19;;;;;;;8.87;2.87;;;;;;;18.50;69.42;98765.50;5093924;28;20208;-93
2023/10/21 04:30:45;;;;;;;9.23;3.37;;;;;;;18.51;69.31;98767.19;5084556;28;20182;-92
2023/10/21 04:33:12;;;;;;;7.83;3.30;;;;;;;18.56;68.60;98772.91;5073455;28;20192;-92
2023/10/21 04:35:37;;;;;;;5.27;2.77;;;;;;;18.45;68.63;98778.31;5073256;28;20209;-92
2023/10/21 04:38:04;;;;;;;7.50;2.90;;;;;;;18.59;67.30;98777.94;5073260;28;20191;-92
2023/10/21 04:40:30;;;;;;;12.03;3.87;;;;;;;18.76;65.60;98777.25;5072967;28;20197;-93
2023/10/21 04:42:56;;;;;;;6.27;3.73;;;;;;;18.66;66.19;98781.72;5073426;28;20194;-92
2023/10/21 04:45:22;;;;;;;7.73;4.20;;;;;;;18.63;65.98;98781.19;5073177;28;20173;-92
2023/10/21 04:47:48;;;;;;;8.47;4.07;;;;;;;18.59;65.84;98785.91;5073170;28;20536;-93
2023/10/21 04:50:14;;;;;;;11.47;4.63;;;;;;;18.62;65.23;98785.66;5072767;28;20184;-93
2023/10/21 04:52:39;;;;;;;8.00;3.97;;;;;;;18.61;65.22;98789.25;5073166;28;20173;-94
2023/10/21 04:55:06;;;;;;;7.00;3.87;;;;;;;18.61;64.82;98791.91;5073098;28;20184;-94
2023/10/21 04:57:31;;;;;;;9.23;3.87;;;;;;;18.56;64.75;98796.81;5070790;28;20179;-93
2023/10/21 04:59:59;;;;;;;8.07;4.30;;;;;;;18.56;64.63;98804.78;5052910;28;20209;-92
2023/10/21 05:02:25;;;;;;;9.03;4.30;;;;;;;18.57;64.46;98800.31;5053804;28;20188;-93
2023/10/21 05:04:50;;;;;;;11.37;4.47;;;;;;;18.51;63.86;98800.84;5052563;28;20586;-93
2023/10/21 05:07:16;;;;;;;13.67;4.93;;;;;;;18.47;63.53;98807.41;5052237;28;20184;-93
2023/10/21 05:09:42;;;;;;;13.67;5.03;;;;;;;18.42;62.81;98795.34;5053193;28;20257;-93
2023/10/21 05:12:10;;;;;;;11.00;5.03;;;;;;;18.36;62.51;98803.06;5052837;28;20180;-92
2023/10/21 05:14:36;;;;;;;13.33;5.07;;;;;;;18.38;62.31;98801.09;5052741;28;20173;-92
2023/10/21 05:17:01;;;;;;;13.87;4.97;;;;;;;18.38;62.13;98809.06;5052615;28;20204;-93
2023/10/21 05:19:26;;;;;;;11.57;5.53;;;;;;;18.61;61.10;98810.50;5057831;28;20211;-92
2023/10/21 05:21:53;;;;;;;9.97;4.77;;;;;;;18.50;61.68;98813.28;5073099;28;20177;-94
2023/10/21 05:24:19;;;;;;;11.83;5.17;;;;;;;18.64;61.30;98809.38;5072903;28;20184;-93
2023/10/21 05:26:44;;;;;;;10.23;5.63;;;;;;;18.95;61.02;98802.94;5081078;28;20623;-93
2023/10/21 05:29:12;;;;;;;11.20;5.20;;;;;;;19.15;60.50;98814.41;5092905;28;20543;-94
2023/10/21 05:31:39;;;;;;;15.77;5.23;;;;;;;19.36;59.81;98817.72;5092871;28;20187;-93
2023/10/21 05:34:06;;;;;;;11.17;4.80;;;;;;;19.60;59.65;98802.16;5109605;28;20607;-93
2023/10/21 05:36:31;;;;;;;7.73;4.27;;;;;;;20.00;59.00;98802.69;5094166;28;20198;-91
2023/10/21 05:38:57;;;;;;;8.33;4.90;;;;;;;20.52;57.38;98817.09;5089633;28;20192;-92
2023/10/21 05:41:23;;;;;;;12.23;6.00;;;;;;;20.99;55.39;98815.03;5072085;28;20233;-92
2023/10/21 05:43:50;;;;;;;14.10;5.90;;;;;;;21.17;54.57;98821.22;5072470;28;20259;-94
2023/10/21 05:46:17;;;;;;;7.13;4.53;;;;;;;21.40;54.13;98827.75;5082110;28;20558;-92
2023/10/21 05:48:43;;;;;;;12.60;5.30;;;;;;;21.48;53.35;98828.78;5092595;28;20184;-92
2023/10/21 05:51:09;;;;;;;8.73;5.37;;;;;;;21.47;53.64;98822.59;5085746;28;20629;-93
2023/10/21 05:53:35;;;;;;;10.50;4.40;;;;;;;21.61;53.10;98829.19;5072147;28;20257;-91
2023/10/21 05:56:03;;;;;;;9.33;5.40;;;;;;;21.63;53.62;98824.53;5072351;28;20193;-92
2023/10/21 05:58:29;;;;;;;8.77;4.30;;;;;;;21.66;54.15;98826.88;5072289;28;20177;-92
2023/10/21 06:00:56;;;;;;;13.33;5.47;;;;;;;21.95;54.32;98830.94;5083004;28;20189;-91
2023/10/21 06:03:23;;;;;;;11.37;6.03;;;;;;;22.75;53.15;98832.19;5073271;28;20173;-92
2023/10/21 06:05:49;;;;;;;9.90;5.43;;;;;;;23.67;50.92;98835.38;5072441;28;20201;-92
2023/10/21 06:08:16;;;;;;;12.87;5.57;;;;;;;24.38;48.92;98834.50;5073037;28;20189;-93
2023/10/21 06:10:44;;;;;;;8.33;5.23;;;;;;;25.05;47.05;98838.31;5072353;28;20197;-93
2023/10/21 06:13:11;;;;;;;8.00;5.13;;;;;;;25.50;46.26;98826.66;5089129;28;20180;-94
2023/10/21 06:15:38;;;;;;;11.87;5.03;;;;;;;25.91;44.83;98830.63;5092261;28;20196;-92
2023/10/21 06:18:04;;;;;;;12.03;6.17;;;;;;;26.63;42.68;98842.31;5094514;28;20185;-93
2023/10/21 06:20:31;;;;;;;10.07;5.53;;;;;;;27.60;40.52;98845.34;5097237;28;20236;-92
2023/10/21 06:22:58;;;;;;;10.57;5.20;;;;;;;28.45;39.54;98841.34;5096107;28;20183;-91
2023/10/21 06:25:25;;;;;;;14.90;5.83;;;;;;;29.13;37.10;98840.31;5096550;28;20176;-91
2023/10/21 06:27:50;;;;;;;11.77;5.70;;;;;;;29.22;36.64;98849.03;5095847;28;20241;-91
2023/10/21 06:30:16;;;;;;;9.73;4.93;;;;;;;29.45;36.65;98852.19;5096325;28;20255;-94
2023/10/21 06:32:43;;;;;;;8.93;5.13;;;;;;;29.54;36.31;98856.34;5096494;28;20284;-91
2023/10/21 06:35:09;;;;;;;10.83;5.07;;;;;;;29.60;37.10;98852.81;5095246;28;20553;-92
2023/10/21 06:37:39;;;;;;;11.37;5.50;;;;;;;29.73;36.22;98863.59;5095598;28;20176;-92
2023/10/21 06:40:06;;;;;;;9.90;5.87;;;;;;;30.04;36.30;98865.66;5095469;28;20237;-92
2023/10/21 06:42:33;;;;;;;11.07;5.27;;;;;;;30.30;35.31;98870.16;5095542;28;20665;-91
2023/10/21 06:45:00;;;;;;;7.57;4.90;;;;;;;30.27;35.91;98865.19;5095246;28;20539;-93
2023/10/21 06:47:26;;;;;;;12.67;6.70;;;;;;;30.10;34.75;98869.41;5095323;28;20229;-91
2023/10/21 06:49:53;;;;;;;12.60;5.47;;;;;;;29.85;35.64;98876.53;5095389;28;20182;-92
2023/10/21 06:52:20;;;;;;;9.83;5.27;;;;;;;29.78;36.21;98876.50;5095003;28;20203;-92
2023/10/21 06:54:46;;;;;;;13.27;4.83;;;;;;;29.78;36.17;98874.66;5095258;28;20176;-92
2023/10/21 06:57:20;;;;;;;14.30;5.70;;;;;;;29.86;35.53;98880.88;5083142;28;20209;-92
2023/10/21 06:59:47;;;;;;;12.37;5.90;;;;;;;29.74;36.50;98881.47;5091799;28;20176;-92
2023/10/21 07:02:14;;;;;;;10.27;5.43;;;;;;;29.58;36.41;98872.97;5075022;28;20558;-91
2023/10/21 07:04:40;;;;;;;14.07;5.33;;;;;;;29.27;36.87;98867.34;5075719;28;20264;-93
2023/10/21 07:07:08;;;;;;;12.03;4.80;;;;;;;29.13;37.09;98882.66;5074842;28;20183;-93
2023/10/21 07:09:33;;;;;;;14.10;5.18;;;;;;;28.91;37.58;98878.44;5081956;28;20234;-92
2023/10/21 07:12:00;;;;;;;9.15;4.85;;;;;;;28.87;38.13;98877.19;5112054;28;20263;-93
2023/10/21 07:14:25;;;;;;;9.73;4.90;;;;;;;28.93;38.52;98876.41;5094760;28;20180;-91
2023/10/21 07:16:53;;;;;;;9.65;4.82;;;;;;;28.83;37.65;98878.63;5095974;28;20196;-91
2023/10/21 07:19:20;;;;;;;9.77;4.70;;;;;;;28.72;38.73;98879.22;5094913;28;20641;-92
2023/10/21 07:21:45;;;;;;;9.45;4.95;;;;;;;28.59;39.17;98886.19;5094788;28;20190;-91
2023/10/21 07:24:12;;;;;;;11.52;4.45;;;;;;;28.55;38.99;98881.41;5094687;28;20255;-91
2023/10/21 07:26:37;;;;;;;11.23;5.25;;;;;;;28.49;39.38;98879.50;5095912;28;20177;-92
2023/10/21 07:29:04;;;;;;;11.10;4.53;;;;;;;28.38;39.45;98886.31;5094290;28;20181;-92
2023/10/21 07:31:30;;;;;;;10.20;5.10;;;;;;;28.26;38.96;98881.69;5094617;28;20629;-92
2023/10/21 07:33:57;;;;;;;10.07;5.07;;;;;;;28.00;39.57;98890.41;5094456;28;20230;-90
2023/10/21 07:36:23;;;;;;;11.57;5.60;;;;;;;27.71;40.13;98896.84;5084742;28;20205;-91
2023/10/21 07:38:49;;;;;;;10.10;5.33;;;;;;;27.48;40.67;98890.00;5074478;28;20242;-91
2023/10/21 07:41:16;;;;;;;11.53;6.10;;;;;;;27.25;41.02;98887.50;5090986;28;20239;-91
2023/10/21 07:43:42;;;;;;;8.93;5.60;;;;;;;27.02;41.93;98898.44;5095172;28;20207;-92
2023/10/21 07:46:09;;;;;;;9.03;5.33;;;;;;;26.82;42.50;98887.47;5094661;28;20199;-92
2023/10/21 07:48:36;;;;;;;9.10;4.63;;;;;;;26.74;42.76;98887.53;5094129;28;20172;-91
2023/10/21 07:51:02;;;;;;;10.83;5.67;;;;;;;26.58;42.82;98887.75;5094870;28;20661;-91
2023/10/21 07:53:29;;;;;;;9.23;4.93;;;;;;;26.36;43.51;98888.72;5095194;28;20187;-91
2023/10/21 07:55:56;;;;;;;12.03;5.13;;;;;;;26.34;44.05;98884.53;5094197;28;20591;-91
2023/10/21 07:58:23;;;;;;;10.07;4.83;;;;;;;26.26;44.52;98877.41;5083875;28;20181;-90
2023/10/21 08:00:50;;;;;;;9.53;4.97;;;;;;;26.20;44.24;98873.59;5074865;28;20174;-90
2023/10/21 08:03:15;;;;;;;8.13;4.33;;;;;;;26.27;44.64;98873.72;5073299;28;20189;-93
2023/10/21 08:05:42;;;;;;;8.20;4.20;;;;;;;26.39;43.76;98871.41;5094963;28;20173;-92
2023/10/21 08:08:08;;;;;;;8.27;5.07;;;;;;;26.45;44.24;98876.84;5089560;28;20180;-90
2023/10/21 08:10:35;;;;;;;11.37;4.10;;;;;;;26.46;44.42;98867.75;5083377;28;20196;-91
2023/10/21 08:13:02;;;;;;;9.97;4.60;;;;;;;26.57;44.18;98880.69;5094826;28;20172;-94
2023/10/21 08:15:29;;;;;;;8.73;4.07;;;;;;;26.67;43.40;98870.50;5083592;28;20204;-94
2023/10/21 08:17:56;;;;;;;14.83;4.07;;;;;;;26.66;44.22;98868.00;5073444;28;20195;-92
2023/10/21 08:20:24;;;;;;;21.47;7.77;;;;;;;26.72;44.19;98867.25;5073465;28;20184;-93
2023/10/21 08:22:51;;;;;;;10.87;4.53;;;;;;;26.80;43.81;98869.84;5089678;28;20205;-93
2023/10/21 08:28:39;;;;;;;9.90;4.60;;;;;;;27.03;42.59;98866.97;5094442;28;20259;-93
2023/10/21 08:31:08;;;;;;;10.33;3.77;;;;;;;27.10;42.45;98866.00;5093663;28;20207;-93
2023/10/21 08:33:33;;;;;;;6.80;3.73;;;;;;;27.15;43.25;98852.00;5093271;28;20621;-94
2023/10/21 08:36:01;;;;;;;9.13;3.70;;;;;;;27.23;43.07;98844.63;5093797;28;20211;-93
2023/10/21 08:38:28;;;;;;;10.80;4.43;;;;;;;27.33;42.40;98850.50;5093659;28;20211;-92
2023/10/21 08:40:53;;;;;;;13.52;4.47;;;;;;;27.45;42.95;98853.53;5091105;28;20249;-93
2023/10/21 08:43:21;;;;;;;10.75;4.35;;;;;;;27.56;42.54;98844.94;5073129;28;20326;-92
2023/10/21 08:45:48;;;;;;;6.18;3.42;;;;;;;27.79;41.80;98850.06;5073221;28;20176;-94
2023/10/21 08:48:16;;;;;;;11.30;3.83;;;;;;;27.91;42.72;98843.94;5083303;28;20192;-94
2023/10/21 08:50:48;;;;;;;8.95;4.22;;;;;;;28.11;41.30;98843.25;5084306;28;20224;-93
2023/10/21 08:53:15;;;;;;;10.82;4.10;;;;;;;28.24;41.09;98841.47;5072789;28;20713;-93
2023/10/21 08:55:43;;;;;;;11.13;3.85;;;;;;;28.39;41.36;98839.44;5073856;28;20200;-93
2023/10/21 08:58:08;;;;;;;9.05;4.13;;;;;;;28.51;40.07;98829.72;5075079;28;20280;-94
2023/10/21 09:00:36;;;;;;;7.55;3.80;;;;;;;28.58;40.36;98838.69;5093376;28;20219;-94
2023/10/21 09:03:03;;;;;;;10.38;4.03;;;;;;;28.60;40.04;98833.94;5093288;28;20179;-94
2023/10/21 09:05:29;;;;;;;8.63;3.85;;;;;;;28.70;41.09;98828.16;5097726;28;20628;-94
2023/10/21 09:07:55;;;;;;;19.35;5.93;;;;;;;28.81;40.35;98824.88;5093112;28;20188;-93
2023/10/21 09:10:35;;;;;;;9.85;3.88;;;;;;;28.96;40.03;98824.69;5093034;28;20184;-94
2023/10/21 09:13:13;;;;;;;14.05;4.38;;;;;;;29.07;41.12;98822.22;5093946;28;20184;-93
2023/10/21 09:15:41;;;;;;;7.85;3.45;;;;;;;29.31;39.30;98815.41;5077153;28;20211;-92
2023/10/21 09:18:11;;;;;;;20.55;3.88;;;;;;;29.42;40.04;98811.25;5092968;28;20176;-93
2023/10/21 09:20:46;;;;;;;14.00;4.00;;;;;;;29.49;40.37;98806.69;5093250;28;20204;-92
2023/10/21 09:23:13;;;;;;;6.55;3.22;;;;;;;29.60;40.18;98812.28;5093081;28;20187;-93
2023/10/21 09:25:38;;;;;;;8.77;3.47;;;;;;;29.69;40.35;98808.31;5092821;28;20176;-93
2023/10/21 09:28:04;;;;;;;10.07;4.55;;;;;;;29.86;39.52;98797.94;5093135;28;20176;-94
2023/10/21 09:30:32;;;;;;;9.45;3.58;;;;;;;29.99;38.64;98794.34;5092942;28;20176;-92
2023/10/21 09:33:07;;;;;;;13.50;4.20;;;;;;;30.02;38.29;98792.06;5092372;28;20636;-92
2023/10/21 09:35:36;;;;;;;8.05;3.63;;;;;;;30.13;38.14;98795.97;5092845;28;20195;-93
2023/10/21 09:38:16;;;;;;;7.47;3.17;;;;;;;30.27;38.20;98784.06;5092798;28;20275;-93
2023/10/21 09:40:43;;;;;;;9.88;3.65;;;;;;;30.32;38.56;98787.78;5092713;28;20176;-92
2023/10/21 09:43:22;;;;;;;;;;;;;;;;;;;;;
2023/10/21 09:45:56;;;;;;;6.70;3.97;;;;;;;30.53;37.72;98783.97;5091098;28;20612;-93
2023/10/21 09:48:32;;;;;;;7.50;3.17;;;;;;;30.57;36.98;98784.38;5072113;28;20177;-90
2023/10/21 09:51:09;;;;;;;6.70;3.20;;;;;;;30.66;37.74;98780.38;5089246;28;20665;-92
2023/10/21 09:53:57;;;;;;;8.43;3.78;;;;;;;30.66;37.14;98762.22;5095615;28;20203;-92
2023/10/21 09:56:27;;;;;;;11.35;4.10;;;;;;;30.70;37.18;98768.88;5097870;28;20253;-92
2023/10/21 09:58:55;;;;;;;7.22;3.45;;;;;;;30.85;37.00;98769.41;5097259;28;20175;-92
2023/10/21 10:01:45;;;;;;;12.65;4.45;;;;;;;30.88;36.35;98760.00;5101673;28;20185;-91
2023/10/21 10:04:13;;;;;;;7.13;3.58;;;;;;;30.81;36.60;98765.50;5074278;28;20217;-93
2023/10/21 10:06:39;;;;;;;6.93;3.35;;;;;;;30.89;36.57;98767.09;5095970;28;20172;-91
2023/10/21 10:09:06;;;;;;;11.55;3.42;;;;;;;30.86;36.57;98756.69;5097259;28;20596;-92
2023/10/21 10:11:36;;;;;;;6.28;3.47;;;;;;;31.05;37.01;98750.34;5096699;28;20176;-94
2023/10/21 10:14:04;;;;;;;7.78;3.45;;;;;;;31.20;35.75;98747.28;5096232;28;20546;-93
2023/10/21 10:16:32;;;;;;;9.48;3.78;;;;;;;31.31;36.17;98752.00;5055759;28;20216;-92
2023/10/21 10:19:00;;;;;;;8.70;3.92;;;;;;;31.35;35.46;98745.06;5059892;28;20212;-91
2023/10/21 10:21:27;;;;;;;7.68;3.88;;;;;;;31.45;35.08;98740.81;5096392;28;20172;-92
2023/10/21 10:24:01;;;;;;;8.93;3.85;;;;;;;31.56;35.73;98731.13;5089878;28;20173;-91
2023/10/21 10:26:44;;;;;;;7.40;3.13;;;;;;;31.75;34.41;98735.53;5095287;28;20175;-95
2023/10/21 10:29:25;;;;;;;16.40;3.95;;;;;;;31.85;35.00;98726.84;5093124;28;20734;-92
2023/10/21 10:32:16;;;;;;;7.68;2.63;;;;;;;31.93;34.52;98721.13;5095716;28;20206;-92
2023/10/21 10:35:19;;;;;;;7.72;3.00;;;;;;;32.13;34.66;98738.00;5096606;28;20157;-92
2023/10/21 10:38:27;;;;;;;8.80;3.67;;;;;;;32.33;34.15;98732.31;5017472;28;20671;-92
2023/10/21 10:41:11;;;;;;;10.20;3.20;;;;;;;32.53;34.48;98725.59;4959561;28;20192;-91
2023/10/21 10:43:41;;;;;;;6.18;2.60;;;;;;;32.76;33.39;98717.50;4978603;28;20199;-91
2023/10/21 10:46:30;;;;;;;8.60;2.95;;;;;;;32.95;33.72;98709.28;5056414;28;20254;-92
2023/10/21 10:49:08;;;;;;;9.57;2.92;;;;;;;33.13;32.80;98718.19;5055792;28;20174;-93
2023/10/21 10:51:47;;;;;;;9.27;2.80;;;;;;;33.39;33.09;98706.00;5068819;28;20173;-92
2023/10/21 10:54:25;;;;;;;9.45;2.97;;;;;;;33.57;32.96;98708.63;5076762;28;20161;-94
2023/10/21 10:57:26;;;;;;;;;;;;;;;;;;;;;
2023/10/21 11:00:54;;;;;;;;;;;;;;;;;;;;;
2023/10/21 11:03:58;;;;;;;10.15;3.03;;;;;;;34.12;31.32;98700.84;5069462;28;20195;-94
2023/10/21 11:06:37;;;;;;;14.73;3.15;;;;;;;34.31;30.35;98704.19;5086392;28;20176;-94
2023/10/21 11:09:40;;;;;;;;;;;;;;;;;;;;;
2023/10/21 11:12:28;;;;;;;;;;;;;;;;;;;;;
2023/10/21 11:15:54;;;;;;;7.57;3.13;;;;;;;34.81;29.90;98685.25;5076080;28;20173;-93
2023/10/21 11:19:21;;;;;;;;;;;;;;;;;;;;;
2023/10/21 11:22:47;;;;;;;;;;;;;;;;;;;;;
2023/10/21 11:29:53;;;;;;;10.02;2.60;;;;;;;35.24;27.60;98688.16;4974941;28;20192;-94
2023/10/21 11:32:37;;;;;;;5.97;2.15;;;;;;;35.47;28.61;98677.03;4949101;29;20203;-92
2023/10/21 11:35:32;;;;;;;7.00;2.90;;;;;;;35.63;28.25;98668.03;4956279;29;20194;-95
2023/10/21 11:41:14;;;;;;;9.98;2.45;;;;;;;35.97;27.32;98656.97;4955443;29;20270;-92
2023/10/21 11:43:50;;;;;;;13.18;2.33;;;;;;;36.28;26.68;98661.72;4955958;29;20210;-95
2023/10/21 11:50:09;;;;;;;8.48;2.30;;;;;;;36.55;25.73;98659.84;4898163;29;20199;-93
2023/10/21 12:40:53;;;;;;;4.93;1.80;;;;;;;37.31;23.65;98633.09;4840709;29;20296;-95
2023/10/21 12:46:32;;;;;;;7.68;1.80;;;;;;;37.34;23.52;98622.47;4804997;29;20677;-93
2023/10/21 12:49:28;;;;;;;5.50;1.58;;;;;;;37.30;23.93;98618.59;4804937;29;20675;-93
2023/10/21 12:51:59;;;;;;;6.15;1.52;;;;;;;37.47;23.70;98622.00;4808173;29;20213;-90
2023/10/21 13:05:17;;;;;;;5.60;1.63;;;;;;;37.60;23.84;98626.16;4831379;29;20208;-92
2023/10/21 13:14:44;;;;;;;8.70;2.03;;;;;;;37.75;23.20;98628.94;4853632;29;20287;-94